Dole Colombia — C6QZ5 — position and weather

sailwx.info

Track history (hours):
 
Tides and Currents Weather Stations Pressure Air Temp Water Temp Dewpoint Dewpoint Depression Visibility Wind Speed Wind Dir Waves Ship Positions

Dole Colombia

Last reported at 2015-Mar-26 01:07 UTC. Time now 2015-Mar-29 03:15 UTC.
Position N 38°33' W 074°49'.

Length 205 m; draft 8.7 m.

Type: Ship. MMSI: 309403000.

Date/timePositionNaut miles runAvg speedWind from/ knotsBaromVisibWave heightAir tempDewpointWater temp
2015-Mar-26 01:07N 38°33' W 074°49'610.3
2015-Mar-26 00:34N 38°37' W 074°53'9 9.4
2015-Mar-25 23:34N 38°45' W 075°01'1111.0
2015-Mar-25 22:34N 38°55' W 075°06'1817.6
2015-Mar-25 21:34N 39°11' W 075°16'1514.6
2015-Mar-25 20:33N 39°22' W 075°28'1211.8
2015-Mar-25 19:33N 39°34' W 075°33'8 7.7
2015-Mar-25 18:33N 39°41' W 075°31'2 1.9
2015-Mar-25 17:32N 39°43' W 075°31'0 0.0
2015-Mar-25 16:32N 39°43' W 075°31'0 0.0
2015-Mar-25 15:32N 39°43' W 075°31'0 0.0
2015-Mar-24 04:32N 39°43' W 075°31'0 0.0
2015-Mar-24 03:32N 39°43' W 075°31'0 0.0
2015-Mar-24 02:32N 39°43' W 075°31'3 3.2
2015-Mar-24 01:33N 39°40' W 075°32'1211.9
2015-Mar-24 00:33N 39°28' W 075°34'1313.3
2015-Mar-23 23:33N 39°18' W 075°23'1413.6
2015-Mar-23 22:33N 39°07' W 075°13'1414.0
2015-Mar-23 21:34N 38°54' W 075°05'10 9.9
2015-Mar-23 20:33N 38°45' W 074°59'10 9.8
2015-Mar-23 19:33N 38°38' W 074°50'78319.0
2015-Mar-22 02:23N 26°12' W 079°30'2421.8
2015-Mar-22 01:16N 25°48' W 079°34'1622.2
2015-Mar-22 00:33N 25°33' W 079°36'3022.5
2015-Mar-21 23:13N 25°03' W 079°41'  
Track history (hours):
 
Tides and Currents Weather Stations Pressure Air Temp Water Temp Dewpoint Dewpoint Depression Visibility Wind Speed Wind Dir Waves Ship Positions

Dole Colombia

Last reported at 2015-Mar-26 01:07 UTC. Time now 2015-Mar-29 03:15 UTC.
Position N 38°33' W 074°49'.

Length 205 m; draft 8.7 m.

Type: Ship. MMSI: 309403000.

Date/timePositionNaut miles runAvg speedWind from/ knotsBaromVisibWave heightAir tempDewpointWater temp
2015-Mar-26 01:07N 38°33' W 074°49'610.3
2015-Mar-26 00:34N 38°37' W 074°53'9 9.4
2015-Mar-25 23:34N 38°45' W 075°01'1111.0
2015-Mar-25 22:34N 38°55' W 075°06'1817.6
2015-Mar-25 21:34N 39°11' W 075°16'1514.6
2015-Mar-25 20:33N 39°22' W 075°28'1211.8
2015-Mar-25 19:33N 39°34' W 075°33'8 7.7
2015-Mar-25 18:33N 39°41' W 075°31'2 1.9
2015-Mar-25 17:32N 39°43' W 075°31'0 0.0
2015-Mar-25 16:32N 39°43' W 075°31'0 0.0
2015-Mar-25 15:32N 39°43' W 075°31'0 0.0
2015-Mar-24 04:32N 39°43' W 075°31'0 0.0
2015-Mar-24 03:32N 39°43' W 075°31'0 0.0
2015-Mar-24 02:32N 39°43' W 075°31'3 3.2
2015-Mar-24 01:33N 39°40' W 075°32'1211.9
2015-Mar-24 00:33N 39°28' W 075°34'1313.3
2015-Mar-23 23:33N 39°18' W 075°23'1413.6
2015-Mar-23 22:33N 39°07' W 075°13'1414.0
2015-Mar-23 21:34N 38°54' W 075°05'10 9.9
2015-Mar-23 20:33N 38°45' W 074°59'10 9.8
2015-Mar-23 19:33N 38°38' W 074°50'78319.0
2015-Mar-22 02:23N 26°12' W 079°30'2421.8
2015-Mar-22 01:16N 25°48' W 079°34'1622.2
2015-Mar-22 00:33N 25°33' W 079°36'3022.5
2015-Mar-21 23:13N 25°03' W 079°41'  

Dump ship's entire track history